sensor_id;sensor_type;location;lat;lon;timestamp;temperature;humidity
14604;DHT22;7388;51.078;13.740;2023-03-11T00:02:17;7.70;46.30
14604;DHT22;7388;51.078;13.740;2023-03-11T00:04:43;7.50;46.70
14604;DHT22;7388;51.078;13.740;2023-03-11T00:07:10;7.40;47.60
14604;DHT22;7388;51.078;13.740;2023-03-11T00:09:36;7.30;47.80
14604;DHT22;7388;51.078;13.740;2023-03-11T00:12:02;7.10;48.40
14604;DHT22;7388;51.078;13.740;2023-03-11T00:14:28;7.00;48.40
14604;DHT22;7388;51.078;13.740;2023-03-11T00:16:54;6.90;48.50
14604;DHT22;7388;51.078;13.740;2023-03-11T00:19:20;6.90;48.90
14604;DHT22;7388;51.078;13.740;2023-03-11T00:21:46;6.90;48.50
14604;DHT22;7388;51.078;13.740;2023-03-11T00:24:11;6.90;49.30
14604;DHT22;7388;51.078;13.740;2023-03-11T00:26:37;6.90;48.80
14604;DHT22;7388;51.078;13.740;2023-03-11T00:29:03;6.90;48.90
14604;DHT22;7388;51.078;13.740;2023-03-11T00:31:28;6.70;49.00
14604;DHT22;7388;51.078;13.740;2023-03-11T00:33:54;6.60;49.60
14604;DHT22;7388;51.078;13.740;2023-03-11T00:36:32;6.70;49.40
14604;DHT22;7388;51.078;13.740;2023-03-11T00:39:01;6.40;49.90
14604;DHT22;7388;51.078;13.740;2023-03-11T00:41:33;6.30;50.90
14604;DHT22;7388;51.078;13.740;2023-03-11T00:44:00;6.30;50.90
14604;DHT22;7388;51.078;13.740;2023-03-11T00:46:26;6.30;50.90
14604;DHT22;7388;51.078;13.740;2023-03-11T00:48:52;6.20;51.30
14604;DHT22;7388;51.078;13.740;2023-03-11T00:51:18;6.30;50.80
14604;DHT22;7388;51.078;13.740;2023-03-11T00:53:45;6.20;50.70
14604;DHT22;7388;51.078;13.740;2023-03-11T00:56:12;6.20;50.50
14604;DHT22;7388;51.078;13.740;2023-03-11T00:58:40;6.00;51.00
14604;DHT22;7388;51.078;13.740;2023-03-11T01:01:17;5.80;51.60
14604;DHT22;7388;51.078;13.740;2023-03-11T01:03:43;5.90;51.70
14604;DHT22;7388;51.078;13.740;2023-03-11T01:06:10;5.90;52.10
14604;DHT22;7388;51.078;13.740;2023-03-11T01:08:36;5.70;51.70
14604;DHT22;7388;51.078;13.740;2023-03-11T01:11:03;5.80;51.50
14604;DHT22;7388;51.078;13.740;2023-03-11T01:13:29;5.80;51.10
14604;DHT22;7388;51.078;13.740;2023-03-11T01:15:55;5.80;51.00
14604;DHT22;7388;51.078;13.740;2023-03-11T01:18:22;5.80;50.60
14604;DHT22;7388;51.078;13.740;2023-03-11T01:20:48;5.90;50.20
14604;DHT22;7388;51.078;13.740;2023-03-11T01:23:15;5.90;50.20
14604;DHT22;7388;51.078;13.740;2023-03-11T01:25:41;6.10;50.00
14604;DHT22;7388;51.078;13.740;2023-03-11T01:28:07;6.20;49.00
14604;DHT22;7388;51.078;13.740;2023-03-11T01:30:34;6.10;49.00
14604;DHT22;7388;51.078;13.740;2023-03-11T01:33:00;5.80;49.50
14604;DHT22;7388;51.078;13.740;2023-03-11T01:35:28;5.80;49.80
14604;DHT22;7388;51.078;13.740;2023-03-11T01:37:55;5.60;50.00
14604;DHT22;7388;51.078;13.740;2023-03-11T01:42:50;5.70;49.70
14604;DHT22;7388;51.078;13.740;2023-03-11T01:45:38;5.70;49.90
14604;DHT22;7388;51.078;13.740;2023-03-11T01:48:05;5.70;49.70
14604;DHT22;7388;51.078;13.740;2023-03-11T01:50:37;5.70;49.90
14604;DHT22;7388;51.078;13.740;2023-03-11T01:53:05;5.70;49.50
14604;DHT22;7388;51.078;13.740;2023-03-11T01:55:32;5.70;49.50
14604;DHT22;7388;51.078;13.740;2023-03-11T01:57:59;5.80;49.10
14604;DHT22;7388;51.078;13.740;2023-03-11T02:00:26;5.80;48.90
14604;DHT22;7388;51.078;13.740;2023-03-11T02:02:54;5.80;49.10
14604;DHT22;7388;51.078;13.740;2023-03-11T02:05:22;5.90;49.10
14604;DHT22;7388;51.078;13.740;2023-03-11T02:07:50;5.80;48.80
14604;DHT22;7388;51.078;13.740;2023-03-11T02:10:17;5.70;49.00
14604;DHT22;7388;51.078;13.740;2023-03-11T02:12:44;5.80;48.90
14604;DHT22;7388;51.078;13.740;2023-03-11T02:15:11;5.80;48.60
14604;DHT22;7388;51.078;13.740;2023-03-11T02:17:39;5.90;48.70
14604;DHT22;7388;51.078;13.740;2023-03-11T02:22:54;5.80;48.90
14604;DHT22;7388;51.078;13.740;2023-03-11T02:28:10;5.80;48.90
14604;DHT22;7388;51.078;13.740;2023-03-11T02:30:39;5.80;49.00
14604;DHT22;7388;51.078;13.740;2023-03-11T02:33:06;5.80;48.60
14604;DHT22;7388;51.078;13.740;2023-03-11T02:35:32;5.80;49.00
14604;DHT22;7388;51.078;13.740;2023-03-11T02:37:58;5.90;49.00
14604;DHT22;7388;51.078;13.740;2023-03-11T02:42:58;5.80;49.10
14604;DHT22;7388;51.078;13.740;2023-03-11T02:45:25;5.90;48.90
14604;DHT22;7388;51.078;13.740;2023-03-11T02:47:55;5.90;48.80
14604;DHT22;7388;51.078;13.740;2023-03-11T02:50:22;5.90;48.40
14604;DHT22;7388;51.078;13.740;2023-03-11T02:52:50;5.80;48.60
14604;DHT22;7388;51.078;13.740;2023-03-11T02:55:16;5.90;48.30
14604;DHT22;7388;51.078;13.740;2023-03-11T02:57:44;5.70;49.00
14604;DHT22;7388;51.078;13.740;2023-03-11T03:00:10;5.70;49.20
14604;DHT22;7388;51.078;13.740;2023-03-11T03:02:40;5.70;49.50
14604;DHT22;7388;51.078;13.740;2023-03-11T03:05:07;4.80;49.10
14604;DHT22;7388;51.078;13.740;2023-03-11T03:07:33;5.60;49.50
14604;DHT22;7388;51.078;13.740;2023-03-11T03:09:59;5.70;49.80
14604;DHT22;7388;51.078;13.740;2023-03-11T03:12:24;5.60;49.90
14604;DHT22;7388;51.078;13.740;2023-03-11T03:14:50;5.50;50.30
14604;DHT22;7388;51.078;13.740;2023-03-11T03:17:16;5.60;50.40
14604;DHT22;7388;51.078;13.740;2023-03-11T03:19:41;5.70;50.40
14604;DHT22;7388;51.078;13.740;2023-03-11T03:22:07;5.60;50.20
14604;DHT22;7388;51.078;13.740;2023-03-11T03:24:33;5.40;51.00
14604;DHT22;7388;51.078;13.740;2023-03-11T03:26:59;5.40;51.30
14604;DHT22;7388;51.078;13.740;2023-03-11T03:29:24;5.30;51.30
14604;DHT22;7388;51.078;13.740;2023-03-11T03:31:50;5.30;51.60
14604;DHT22;7388;51.078;13.740;2023-03-11T03:34:16;5.20;51.90
14604;DHT22;7388;51.078;13.740;2023-03-11T03:36:42;5.30;52.00
14604;DHT22;7388;51.078;13.740;2023-03-11T03:39:07;5.30;51.60
14604;DHT22;7388;51.078;13.740;2023-03-11T03:41:33;5.30;51.50
14604;DHT22;7388;51.078;13.740;2023-03-11T03:43:59;5.40;50.90
14604;DHT22;7388;51.078;13.740;2023-03-11T03:46:25;5.40;50.80
14604;DHT22;7388;51.078;13.740;2023-03-11T03:48:51;5.40;51.50
14604;DHT22;7388;51.078;13.740;2023-03-11T03:51:16;5.40;50.80
14604;DHT22;7388;51.078;13.740;2023-03-11T03:53:43;5.40;50.70
14604;DHT22;7388;51.078;13.740;2023-03-11T03:56:13;5.50;50.60
14604;DHT22;7388;51.078;13.740;2023-03-11T03:58:40;5.50;50.50
14604;DHT22;7388;51.078;13.740;2023-03-11T04:01:06;5.40;50.50
14604;DHT22;7388;51.078;13.740;2023-03-11T04:03:33;5.40;50.60
14604;DHT22;7388;51.078;13.740;2023-03-11T04:06:11;5.50;50.40
14604;DHT22;7388;51.078;13.740;2023-03-11T04:08:40;5.50;50.50
14604;DHT22;7388;51.078;13.740;2023-03-11T04:11:05;5.30;50.90
14604;DHT22;7388;51.078;13.740;2023-03-11T04:13:31;5.30;50.90
14604;DHT22;7388;51.078;13.740;2023-03-11T04:15:57;5.20;51.00
14604;DHT22;7388;51.078;13.740;2023-03-11T04:18:23;5.30;50.80
14604;DHT22;7388;51.078;13.740;2023-03-11T04:20:49;5.40;50.60
14604;DHT22;7388;51.078;13.740;2023-03-11T04:23:15;5.30;50.60
14604;DHT22;7388;51.078;13.740;2023-03-11T04:25:41;5.40;50.60
14604;DHT22;7388;51.078;13.740;2023-03-11T04:28:07;5.40;50.60
14604;DHT22;7388;51.078;13.740;2023-03-11T04:30:32;5.30;50.80
14604;DHT22;7388;51.078;13.740;2023-03-11T04:32:58;5.20;50.90
14604;DHT22;7388;51.078;13.740;2023-03-11T04:35:24;5.20;51.50
14604;DHT22;7388;51.078;13.740;2023-03-11T04:37:50;5.20;51.20
14604;DHT22;7388;51.078;13.740;2023-03-11T04:40:16;5.30;51.00
14604;DHT22;7388;51.078;13.740;2023-03-11T04:42:41;5.30;50.90
14604;DHT22;7388;51.078;13.740;2023-03-11T04:45:08;5.30;51.00
14604;DHT22;7388;51.078;13.740;2023-03-11T04:47:35;5.20;50.90
14604;DHT22;7388;51.078;13.740;2023-03-11T04:50:01;5.20;51.30
14604;DHT22;7388;51.078;13.740;2023-03-11T04:52:26;5.20;51.10
14604;DHT22;7388;51.078;13.740;2023-03-11T04:54:52;5.30;51.00
14604;DHT22;7388;51.078;13.740;2023-03-11T04:57:18;5.20;50.90
14604;DHT22;7388;51.078;13.740;2023-03-11T04:59:44;5.20;50.80
14604;DHT22;7388;51.078;13.740;2023-03-11T05:02:09;5.20;50.80
14604;DHT22;7388;51.078;13.740;2023-03-11T05:04:35;5.20;50.80
14604;DHT22;7388;51.078;13.740;2023-03-11T05:07:01;5.30;50.80
14604;DHT22;7388;51.078;13.740;2023-03-11T05:09:27;5.30;50.60
14604;DHT22;7388;51.078;13.740;2023-03-11T05:11:53;5.40;50.30
14604;DHT22;7388;51.078;13.740;2023-03-11T05:14:18;5.40;50.80
14604;DHT22;7388;51.078;13.740;2023-03-11T05:16:44;5.50;49.70
14604;DHT22;7388;51.078;13.740;2023-03-11T05:19:10;5.40;49.50
14604;DHT22;7388;51.078;13.740;2023-03-11T05:22:00;5.50;49.70
14604;DHT22;7388;51.078;13.740;2023-03-11T05:24:27;5.40;49.20
14604;DHT22;7388;51.078;13.740;2023-03-11T05:26:53;5.40;49.30
14604;DHT22;7388;51.078;13.740;2023-03-11T05:29:20;5.30;49.60
14604;DHT22;7388;51.078;13.740;2023-03-11T05:31:46;5.30;50.40
14604;DHT22;7388;51.078;13.740;2023-03-11T05:34:12;5.30;49.50
14604;DHT22;7388;51.078;13.740;2023-03-11T05:36:38;5.20;49.50
14604;DHT22;7388;51.078;13.740;2023-03-11T05:39:04;5.20;49.50
14604;DHT22;7388;51.078;13.740;2023-03-11T05:41:30;5.20;49.30
14604;DHT22;7388;51.078;13.740;2023-03-11T05:43:56;5.30;49.80
14604;DHT22;7388;51.078;13.740;2023-03-11T05:46:21;5.40;48.30
14604;DHT22;7388;51.078;13.740;2023-03-11T05:48:47;5.40;48.20
14604;DHT22;7388;51.078;13.740;2023-03-11T05:51:13;5.40;48.10
14604;DHT22;7388;51.078;13.740;2023-03-11T05:53:42;5.30;48.10
14604;DHT22;7388;51.078;13.740;2023-03-11T05:56:13;5.30;47.60
14604;DHT22;7388;51.078;13.740;2023-03-11T05:58:39;5.30;48.10
14604;DHT22;7388;51.078;13.740;2023-03-11T06:01:12;5.40;48.10
14604;DHT22;7388;51.078;13.740;2023-03-11T06:03:39;5.40;48.00
14604;DHT22;7388;51.078;13.740;2023-03-11T06:06:07;5.30;47.90
14604;DHT22;7388;51.078;13.740;2023-03-11T06:08:33;5.40;47.70
14604;DHT22;7388;51.078;13.740;2023-03-11T06:11:05;5.30;47.30
14604;DHT22;7388;51.078;13.740;2023-03-11T06:13:31;5.40;47.60
14604;DHT22;7388;51.078;13.740;2023-03-11T06:15:57;5.40;47.40
14604;DHT22;7388;51.078;13.740;2023-03-11T06:18:23;5.40;47.50
14604;DHT22;7388;51.078;13.740;2023-03-11T06:20:56;5.40;46.80
14604;DHT22;7388;51.078;13.740;2023-03-11T06:23:23;5.40;46.90
14604;DHT22;7388;51.078;13.740;2023-03-11T06:28:21;5.50;46.90
14604;DHT22;7388;51.078;13.740;2023-03-11T06:30:46;5.50;46.90
14604;DHT22;7388;51.078;13.740;2023-03-11T06:33:12;5.50;46.90
14604;DHT22;7388;51.078;13.740;2023-03-11T06:35:39;5.60;46.70
14604;DHT22;7388;51.078;13.740;2023-03-11T06:38:06;5.50;46.60
14604;DHT22;7388;51.078;13.740;2023-03-11T06:40:33;5.40;46.50
14604;DHT22;7388;51.078;13.740;2023-03-11T06:42:58;5.50;46.60
14604;DHT22;7388;51.078;13.740;2023-03-11T06:45:24;5.60;46.50
14604;DHT22;7388;51.078;13.740;2023-03-11T06:47:50;5.60;46.00
14604;DHT22;7388;51.078;13.740;2023-03-11T06:50:16;5.70;46.10
14604;DHT22;7388;51.078;13.740;2023-03-11T06:52:42;5.60;46.00
14604;DHT22;7388;51.078;13.740;2023-03-11T06:55:08;5.50;46.20
14604;DHT22;7388;51.078;13.740;2023-03-11T06:57:34;5.60;46.90
14604;DHT22;7388;51.078;13.740;2023-03-11T06:59:59;5.60;46.20
14604;DHT22;7388;51.078;13.740;2023-03-11T07:02:25;5.70;45.90
14604;DHT22;7388;51.078;13.740;2023-03-11T07:04:51;5.60;45.60
14604;DHT22;7388;51.078;13.740;2023-03-11T07:07:17;5.70;45.80
14604;DHT22;7388;51.078;13.740;2023-03-11T07:09:43;5.70;46.00
14604;DHT22;7388;51.078;13.740;2023-03-11T07:12:09;5.70;45.60
14604;DHT22;7388;51.078;13.740;2023-03-11T07:14:34;5.60;45.60
14604;DHT22;7388;51.078;13.740;2023-03-11T07:17:00;5.50;45.70
14604;DHT22;7388;51.078;13.740;2023-03-11T07:19:26;5.40;45.70
14604;DHT22;7388;51.078;13.740;2023-03-11T07:21:52;5.50;46.00
14604;DHT22;7388;51.078;13.740;2023-03-11T07:24:18;5.50;45.70
14604;DHT22;7388;51.078;13.740;2023-03-11T07:26:43;5.50;45.80
14604;DHT22;7388;51.078;13.740;2023-03-11T07:29:09;5.60;45.80
14604;DHT22;7388;51.078;13.740;2023-03-11T07:31:35;5.60;45.60
14604;DHT22;7388;51.078;13.740;2023-03-11T07:34:04;5.60;46.00
14604;DHT22;7388;51.078;13.740;2023-03-11T07:36:30;5.60;46.10
14604;DHT22;7388;51.078;13.740;2023-03-11T07:38:58;5.60;46.10
14604;DHT22;7388;51.078;13.740;2023-03-11T07:41:26;5.60;46.30
14604;DHT22;7388;51.078;13.740;2023-03-11T07:43:55;5.60;46.30
14604;DHT22;7388;51.078;13.740;2023-03-11T07:46:23;5.60;46.10
14604;DHT22;7388;51.078;13.740;2023-03-11T07:48:49;5.60;46.40
14604;DHT22;7388;51.078;13.740;2023-03-11T07:51:21;5.60;46.10
14604;DHT22;7388;51.078;13.740;2023-03-11T07:53:48;5.70;46.00
14604;DHT22;7388;51.078;13.740;2023-03-11T07:56:15;5.80;45.60
14604;DHT22;7388;51.078;13.740;2023-03-11T07:58:42;5.70;45.60
14604;DHT22;7388;51.078;13.740;2023-03-11T08:01:11;5.70;45.60
14604;DHT22;7388;51.078;13.740;2023-03-11T08:03:37;5.80;45.60
14604;DHT22;7388;51.078;13.740;2023-03-11T08:06:13;5.80;45.00
14604;DHT22;7388;51.078;13.740;2023-03-11T08:08:40;5.80;44.80
14604;DHT22;7388;51.078;13.740;2023-03-11T08:11:06;5.90;45.00
14604;DHT22;7388;51.078;13.740;2023-03-11T08:13:32;5.90;44.40
14604;DHT22;7388;51.078;13.740;2023-03-11T08:15:58;5.90;44.60
14604;DHT22;7388;51.078;13.740;2023-03-11T08:18:24;5.90;44.50
14604;DHT22;7388;51.078;13.740;2023-03-11T08:20:49;5.90;44.50
14604;DHT22;7388;51.078;13.740;2023-03-11T08:23:15;6.00;44.60
14604;DHT22;7388;51.078;13.740;2023-03-11T08:25:41;6.00;44.50
14604;DHT22;7388;51.078;13.740;2023-03-11T08:28:07;6.00;44.60
14604;DHT22;7388;51.078;13.740;2023-03-11T08:30:34;6.10;44.60
14604;DHT22;7388;51.078;13.740;2023-03-11T08:32:59;6.10;44.50
14604;DHT22;7388;51.078;13.740;2023-03-11T08:35:26;6.20;44.50
14604;DHT22;7388;51.078;13.740;2023-03-11T08:37:52;6.20;44.60
14604;DHT22;7388;51.078;13.740;2023-03-11T08:40:18;6.20;44.60
14604;DHT22;7388;51.078;13.740;2023-03-11T08:42:44;6.30;44.70
14604;DHT22;7388;51.078;13.740;2023-03-11T08:45:10;6.20;44.40
14604;DHT22;7388;51.078;13.740;2023-03-11T08:47:37;6.30;44.60
14604;DHT22;7388;51.078;13.740;2023-03-11T08:50:07;6.30;44.60
14604;DHT22;7388;51.078;13.740;2023-03-11T08:52:33;6.30;44.80
14604;DHT22;7388;51.078;13.740;2023-03-11T08:54:58;6.30;44.60
14604;DHT22;7388;51.078;13.740;2023-03-11T08:57:24;6.30;44.60
14604;DHT22;7388;51.078;13.740;2023-03-11T08:59:50;6.30;44.70
14604;DHT22;7388;51.078;13.740;2023-03-11T09:02:16;6.30;44.70
14604;DHT22;7388;51.078;13.740;2023-03-11T09:04:41;6.30;44.40
14604;DHT22;7388;51.078;13.740;2023-03-11T09:07:09;6.30;45.10
14604;DHT22;7388;51.078;13.740;2023-03-11T09:09:35;6.30;44.40
14604;DHT22;7388;51.078;13.740;2023-03-11T09:12:01;6.20;44.80
14604;DHT22;7388;51.078;13.740;2023-03-11T09:14:27;6.20;44.90
14604;DHT22;7388;51.078;13.740;2023-03-11T09:16:52;6.20;44.70
14604;DHT22;7388;51.078;13.740;2023-03-11T09:19:18;6.20;45.00
14604;DHT22;7388;51.078;13.740;2023-03-11T09:21:44;6.20;45.00
14604;DHT22;7388;51.078;13.740;2023-03-11T09:24:10;6.20;44.90
14604;DHT22;7388;51.078;13.740;2023-03-11T09:26:35;6.20;44.90
14604;DHT22;7388;51.078;13.740;2023-03-11T09:29:01;6.20;44.90
14604;DHT22;7388;51.078;13.740;2023-03-11T09:31:27;6.10;45.20
14604;DHT22;7388;51.078;13.740;2023-03-11T09:33:53;6.10;45.40
14604;DHT22;7388;51.078;13.740;2023-03-11T09:36:20;6.00;45.40
14604;DHT22;7388;51.078;13.740;2023-03-11T09:38:47;6.00;45.50
14604;DHT22;7388;51.078;13.740;2023-03-11T09:46:44;5.90;45.80
14604;DHT22;7388;51.078;13.740;2023-03-11T09:52:08;5.90;46.60
14604;DHT22;7388;51.078;13.740;2023-03-11T09:54:38;6.00;46.00
14604;DHT22;7388;51.078;13.740;2023-03-11T09:57:05;5.90;46.10
14604;DHT22;7388;51.078;13.740;2023-03-11T09:59:36;6.00;45.90
14604;DHT22;7388;51.078;13.740;2023-03-11T10:02:04;6.00;46.60
